New Concord, Ohio
Current Conditions -  °F | °C
As of 7:53 AM on Monday 22 Dec 2014 (Local Time) from KZZV Reporting Station
Haze Haze  
Wind Chill: 25°   Ceiling: 5000
Heat Index: 25°   Visibility: 5mi
Dew Point: 22°   Wind: 0mph
Humidity: 88%   Direction: NA
Pressure: 30.08"   Gusts: NA
Location:  39.99°N, 81.73°W
Report Text: KZZV 221253Z AUTO 00000KT 5SM BR OVC050 M04/M06 A3008 RMK AO2 SLP198 T10391056 $
Loading
Personal Weather Stations






























Interactive Weather Map New forecast layout! Learn more

10-Day Weather Forecast

Advertisements
Track Severe Weather on mobile